sensor_id;sensor_type;location;lat;lon;timestamp;temperature;humidity
39931;DHT22;26635;-35.248;149.138;2024-02-26T00:02:14;23.80;63.60
39931;DHT22;26635;-35.248;149.138;2024-02-26T00:04:44;23.90;63.70
39931;DHT22;26635;-35.248;149.138;2024-02-26T00:07:14;24.10;62.20
39931;DHT22;26635;-35.248;149.138;2024-02-26T00:09:45;24.20;61.30
39931;DHT22;26635;-35.248;149.138;2024-02-26T00:12:15;24.30;62.20
39931;DHT22;26635;-35.248;149.138;2024-02-26T00:14:46;24.40;60.40
39931;DHT22;26635;-35.248;149.138;2024-02-26T00:17:19;24.50;61.60
39931;DHT22;26635;-35.248;149.138;2024-02-26T00:19:49;24.70;61.60
39931;DHT22;26635;-35.248;149.138;2024-02-26T00:22:19;24.80;60.80
39931;DHT22;26635;-35.248;149.138;2024-02-26T00:24:51;24.90;59.60
39931;DHT22;26635;-35.248;149.138;2024-02-26T00:27:22;24.80;58.20
39931;DHT22;26635;-35.248;149.138;2024-02-26T00:29:52;24.80;60.20
39931;DHT22;26635;-35.248;149.138;2024-02-26T00:32:22;24.90;59.80
39931;DHT22;26635;-35.248;149.138;2024-02-26T00:34:53;25.00;59.10
39931;DHT22;26635;-35.248;149.138;2024-02-26T00:37:23;25.20;59.40
39931;DHT22;26635;-35.248;149.138;2024-02-26T00:39:55;25.30;58.70
39931;DHT22;26635;-35.248;149.138;2024-02-26T00:42:25;25.40;58.30
39931;DHT22;26635;-35.248;149.138;2024-02-26T00:44:56;25.40;60.20
39931;DHT22;26635;-35.248;149.138;2024-02-26T00:47:26;25.60;60.50
39931;DHT22;26635;-35.248;149.138;2024-02-26T00:49:56;25.80;59.30
39931;DHT22;26635;-35.248;149.138;2024-02-26T00:52:27;26.00;58.80
39931;DHT22;26635;-35.248;149.138;2024-02-26T00:54:57;25.90;57.60
39931;DHT22;26635;-35.248;149.138;2024-02-26T00:57:27;26.00;58.80
39931;DHT22;26635;-35.248;149.138;2024-02-26T00:59:58;26.10;58.90
39931;DHT22;26635;-35.248;149.138;2024-02-26T01:02:28;26.30;58.70
39931;DHT22;26635;-35.248;149.138;2024-02-26T01:04:59;26.60;58.80
39931;DHT22;26635;-35.248;149.138;2024-02-26T01:07:29;26.80;57.90
39931;DHT22;26635;-35.248;149.138;2024-02-26T01:10:05;27.00;57.10
39931;DHT22;26635;-35.248;149.138;2024-02-26T01:12:36;27.20;56.40
39931;DHT22;26635;-35.248;149.138;2024-02-26T01:15:07;27.20;58.00
39931;DHT22;26635;-35.248;149.138;2024-02-26T01:17:38;27.30;55.60
39931;DHT22;26635;-35.248;149.138;2024-02-26T01:20:08;27.40;55.70
39931;DHT22;26635;-35.248;149.138;2024-02-26T01:22:39;27.40;53.60
39931;DHT22;26635;-35.248;149.138;2024-02-26T01:25:10;27.50;53.90
39931;DHT22;26635;-35.248;149.138;2024-02-26T01:27:40;27.50;53.30
39931;DHT22;26635;-35.248;149.138;2024-02-26T01:30:12;27.60;54.30
39931;DHT22;26635;-35.248;149.138;2024-02-26T01:32:45;27.70;55.70
39931;DHT22;26635;-35.248;149.138;2024-02-26T01:35:16;27.90;55.60
39931;DHT22;26635;-35.248;149.138;2024-02-26T01:37:46;28.00;54.80
39931;DHT22;26635;-35.248;149.138;2024-02-26T01:40:17;28.00;54.30
39931;DHT22;26635;-35.248;149.138;2024-02-26T01:42:49;28.10;54.40
39931;DHT22;26635;-35.248;149.138;2024-02-26T01:45:22;28.30;53.20
39931;DHT22;26635;-35.248;149.138;2024-02-26T01:47:55;28.40;52.80
39931;DHT22;26635;-35.248;149.138;2024-02-26T01:50:26;28.60;53.70
39931;DHT22;26635;-35.248;149.138;2024-02-26T01:52:58;28.70;53.20
39931;DHT22;26635;-35.248;149.138;2024-02-26T01:55:28;28.90;52.90
39931;DHT22;26635;-35.248;149.138;2024-02-26T01:57:59;28.90;51.80
39931;DHT22;26635;-35.248;149.138;2024-02-26T02:00:30;29.10;52.90
39931;DHT22;26635;-35.248;149.138;2024-02-26T02:03:02;29.20;54.40
39931;DHT22;26635;-35.248;149.138;2024-02-26T02:05:33;29.20;52.60
39931;DHT22;26635;-35.248;149.138;2024-02-26T02:08:05;29.20;52.20
39931;DHT22;26635;-35.248;149.138;2024-02-26T02:10:36;29.20;51.80
39931;DHT22;26635;-35.248;149.138;2024-02-26T02:13:07;29.20;52.80
39931;DHT22;26635;-35.248;149.138;2024-02-26T02:15:37;29.30;51.30
39931;DHT22;26635;-35.248;149.138;2024-02-26T02:18:07;29.40;51.80
39931;DHT22;26635;-35.248;149.138;2024-02-26T02:20:38;29.50;54.00
39931;DHT22;26635;-35.248;149.138;2024-02-26T02:23:08;29.40;49.60
39931;DHT22;26635;-35.248;149.138;2024-02-26T02:25:39;29.40;50.10
39931;DHT22;26635;-35.248;149.138;2024-02-26T02:28:09;29.50;50.60
39931;DHT22;26635;-35.248;149.138;2024-02-26T02:30:41;29.50;48.40
39931;DHT22;26635;-35.248;149.138;2024-02-26T02:33:11;29.50;48.00
39931;DHT22;26635;-35.248;149.138;2024-02-26T02:35:43;29.50;47.80
39931;DHT22;26635;-35.248;149.138;2024-02-26T02:38:15;29.60;47.80
39931;DHT22;26635;-35.248;149.138;2024-02-26T02:40:48;29.70;47.40
39931;DHT22;26635;-35.248;149.138;2024-02-26T02:43:18;29.70;48.70
39931;DHT22;26635;-35.248;149.138;2024-02-26T02:45:48;29.70;49.10
39931;DHT22;26635;-35.248;149.138;2024-02-26T02:48:19;29.80;50.60
39931;DHT22;26635;-35.248;149.138;2024-02-26T02:50:49;29.90;49.90
39931;DHT22;26635;-35.248;149.138;2024-02-26T02:53:20;29.90;49.50
39931;DHT22;26635;-35.248;149.138;2024-02-26T02:55:50;29.90;49.10
39931;DHT22;26635;-35.248;149.138;2024-02-26T02:58:20;29.90;48.30
39931;DHT22;26635;-35.248;149.138;2024-02-26T03:00:51;29.90;49.60
39931;DHT22;26635;-35.248;149.138;2024-02-26T03:03:21;29.90;48.20
39931;DHT22;26635;-35.248;149.138;2024-02-26T03:05:53;29.90;49.30
39931;DHT22;26635;-35.248;149.138;2024-02-26T03:08:28;29.90;49.40
39931;DHT22;26635;-35.248;149.138;2024-02-26T03:11:01;29.90;49.20
39931;DHT22;26635;-35.248;149.138;2024-02-26T03:13:31;30.00;48.00
39931;DHT22;26635;-35.248;149.138;2024-02-26T03:16:05;30.00;48.00
39931;DHT22;26635;-35.248;149.138;2024-02-26T03:18:39;30.10;47.00
39931;DHT22;26635;-35.248;149.138;2024-02-26T03:21:10;30.10;47.00
39931;DHT22;26635;-35.248;149.138;2024-02-26T03:23:40;30.20;47.50
39931;DHT22;26635;-35.248;149.138;2024-02-26T03:26:11;30.20;46.60
39931;DHT22;26635;-35.248;149.138;2024-02-26T03:28:45;30.10;46.10
39931;DHT22;26635;-35.248;149.138;2024-02-26T03:31:15;30.10;46.10
39931;DHT22;26635;-35.248;149.138;2024-02-26T03:33:45;30.10;45.50
39931;DHT22;26635;-35.248;149.138;2024-02-26T03:36:16;30.10;46.20
39931;DHT22;26635;-35.248;149.138;2024-02-26T03:38:46;30.00;43.10
39931;DHT22;26635;-35.248;149.138;2024-02-26T03:41:17;30.00;46.90
39931;DHT22;26635;-35.248;149.138;2024-02-26T03:43:47;30.00;45.90
39931;DHT22;26635;-35.248;149.138;2024-02-26T03:46:18;30.10;44.40
39931;DHT22;26635;-35.248;149.138;2024-02-26T03:48:48;30.10;44.40
39931;DHT22;26635;-35.248;149.138;2024-02-26T03:51:18;30.00;44.00
39931;DHT22;26635;-35.248;149.138;2024-02-26T03:53:49;30.00;45.70
39931;DHT22;26635;-35.248;149.138;2024-02-26T03:56:19;30.00;46.00
39931;DHT22;26635;-35.248;149.138;2024-02-26T03:58:50;29.90;43.70
39931;DHT22;26635;-35.248;149.138;2024-02-26T04:01:20;29.90;43.90
39931;DHT22;26635;-35.248;149.138;2024-02-26T04:03:50;29.90;43.60
39931;DHT22;26635;-35.248;149.138;2024-02-26T04:06:22;29.90;43.20
39931;DHT22;26635;-35.248;149.138;2024-02-26T04:08:52;29.80;44.20
39931;DHT22;26635;-35.248;149.138;2024-02-26T04:11:23;29.80;45.40
39931;DHT22;26635;-35.248;149.138;2024-02-26T04:13:53;29.80;43.00
39931;DHT22;26635;-35.248;149.138;2024-02-26T04:16:25;29.70;44.70
39931;DHT22;26635;-35.248;149.138;2024-02-26T04:18:55;29.80;44.20
39931;DHT22;26635;-35.248;149.138;2024-02-26T04:21:26;29.80;43.60
39931;DHT22;26635;-35.248;149.138;2024-02-26T04:23:56;29.90;44.00
39931;DHT22;26635;-35.248;149.138;2024-02-26T04:26:31;29.90;43.90
39931;DHT22;26635;-35.248;149.138;2024-02-26T04:29:01;29.90;44.90
39931;DHT22;26635;-35.248;149.138;2024-02-26T04:31:32;29.90;44.20
39931;DHT22;26635;-35.248;149.138;2024-02-26T04:34:02;29.90;43.10
39931;DHT22;26635;-35.248;149.138;2024-02-26T04:36:32;29.80;43.40
39931;DHT22;26635;-35.248;149.138;2024-02-26T04:39:03;29.80;45.00
39931;DHT22;26635;-35.248;149.138;2024-02-26T04:41:34;29.80;44.90
39931;DHT22;26635;-35.248;149.138;2024-02-26T04:44:04;29.80;44.40
39931;DHT22;26635;-35.248;149.138;2024-02-26T04:46:35;29.80;44.10
39931;DHT22;26635;-35.248;149.138;2024-02-26T04:49:05;29.80;44.60
39931;DHT22;26635;-35.248;149.138;2024-02-26T04:51:36;29.80;44.30
39931;DHT22;26635;-35.248;149.138;2024-02-26T04:54:06;29.70;43.70
39931;DHT22;26635;-35.248;149.138;2024-02-26T04:56:37;29.60;44.90
39931;DHT22;26635;-35.248;149.138;2024-02-26T04:59:07;29.50;44.50
39931;DHT22;26635;-35.248;149.138;2024-02-26T05:01:38;29.40;45.40
39931;DHT22;26635;-35.248;149.138;2024-02-26T05:04:09;29.40;44.30
39931;DHT22;26635;-35.248;149.138;2024-02-26T05:06:41;29.40;45.00
39931;DHT22;26635;-35.248;149.138;2024-02-26T05:09:11;29.50;45.60
39931;DHT22;26635;-35.248;149.138;2024-02-26T05:11:42;29.50;44.80
39931;DHT22;26635;-35.248;149.138;2024-02-26T05:14:12;29.50;44.70
39931;DHT22;26635;-35.248;149.138;2024-02-26T05:16:42;29.60;44.70
39931;DHT22;26635;-35.248;149.138;2024-02-26T05:19:13;29.60;43.90
39931;DHT22;26635;-35.248;149.138;2024-02-26T05:21:43;29.50;45.50
39931;DHT22;26635;-35.248;149.138;2024-02-26T05:24:14;29.50;44.60
39931;DHT22;26635;-35.248;149.138;2024-02-26T05:26:46;29.40;44.30
39931;DHT22;26635;-35.248;149.138;2024-02-26T05:29:16;29.50;44.60
39931;DHT22;26635;-35.248;149.138;2024-02-26T05:31:47;29.50;45.20
39931;DHT22;26635;-35.248;149.138;2024-02-26T05:34:17;29.50;45.90
39931;DHT22;26635;-35.248;149.138;2024-02-26T05:36:48;29.40;46.20
39931;DHT22;26635;-35.248;149.138;2024-02-26T05:39:18;29.30;46.50
39931;DHT22;26635;-35.248;149.138;2024-02-26T05:41:48;29.20;47.20
39931;DHT22;26635;-35.248;149.138;2024-02-26T05:44:19;29.20;46.90
39931;DHT22;26635;-35.248;149.138;2024-02-26T05:46:49;29.30;46.70
39931;DHT22;26635;-35.248;149.138;2024-02-26T05:49:19;29.20;47.90
39931;DHT22;26635;-35.248;149.138;2024-02-26T05:51:51;29.20;47.20
39931;DHT22;26635;-35.248;149.138;2024-02-26T05:54:21;29.20;46.80
39931;DHT22;26635;-35.248;149.138;2024-02-26T05:56:52;29.10;47.70
39931;DHT22;26635;-35.248;149.138;2024-02-26T05:59:22;29.00;47.30
39931;DHT22;26635;-35.248;149.138;2024-02-26T06:01:52;29.00;47.20
39931;DHT22;26635;-35.248;149.138;2024-02-26T06:04:23;29.00;47.90
39931;DHT22;26635;-35.248;149.138;2024-02-26T06:06:53;28.90;48.30
39931;DHT22;26635;-35.248;149.138;2024-02-26T06:09:23;28.80;48.00
39931;DHT22;26635;-35.248;149.138;2024-02-26T06:11:54;28.70;47.90
39931;DHT22;26635;-35.248;149.138;2024-02-26T06:14:24;28.70;49.10
39931;DHT22;26635;-35.248;149.138;2024-02-26T06:16:54;28.60;48.60
39931;DHT22;26635;-35.248;149.138;2024-02-26T06:19:25;28.50;49.00
39931;DHT22;26635;-35.248;149.138;2024-02-26T06:21:55;28.50;50.70
39931;DHT22;26635;-35.248;149.138;2024-02-26T06:24:25;28.40;49.10
39931;DHT22;26635;-35.248;149.138;2024-02-26T06:26:56;28.40;50.60
39931;DHT22;26635;-35.248;149.138;2024-02-26T06:29:26;28.30;50.50
39931;DHT22;26635;-35.248;149.138;2024-02-26T06:31:56;28.10;53.30
39931;DHT22;26635;-35.248;149.138;2024-02-26T06:34:27;28.10;56.80
39931;DHT22;26635;-35.248;149.138;2024-02-26T06:36:57;27.90;57.70
39931;DHT22;26635;-35.248;149.138;2024-02-26T06:39:27;27.80;58.40
39931;DHT22;26635;-35.248;149.138;2024-02-26T06:42:00;27.70;58.80
39931;DHT22;26635;-35.248;149.138;2024-02-26T06:44:31;27.60;59.80
39931;DHT22;26635;-35.248;149.138;2024-02-26T06:47:02;27.40;61.60
39931;DHT22;26635;-35.248;149.138;2024-02-26T06:49:33;27.30;63.20
39931;DHT22;26635;-35.248;149.138;2024-02-26T06:52:04;27.10;64.40
39931;DHT22;26635;-35.248;149.138;2024-02-26T06:54:35;27.00;65.50
39931;DHT22;26635;-35.248;149.138;2024-02-26T06:57:06;26.90;66.10
39931;DHT22;26635;-35.248;149.138;2024-02-26T06:59:36;26.60;66.20
39931;DHT22;26635;-35.248;149.138;2024-02-26T07:02:06;26.60;66.60
39931;DHT22;26635;-35.248;149.138;2024-02-26T07:04:36;26.30;67.00
39931;DHT22;26635;-35.248;149.138;2024-02-26T07:07:08;26.00;67.70
39931;DHT22;26635;-35.248;149.138;2024-02-26T07:09:41;25.80;68.20
39931;DHT22;26635;-35.248;149.138;2024-02-26T07:12:12;25.70;68.90
39931;DHT22;26635;-35.248;149.138;2024-02-26T07:14:43;25.60;69.70
39931;DHT22;26635;-35.248;149.138;2024-02-26T07:17:13;25.50;69.70
39931;DHT22;26635;-35.248;149.138;2024-02-26T07:19:45;25.30;69.60
39931;DHT22;26635;-35.248;149.138;2024-02-26T07:22:16;25.10;70.20
39931;DHT22;26635;-35.248;149.138;2024-02-26T07:24:46;25.00;70.60
39931;DHT22;26635;-35.248;149.138;2024-02-26T07:27:18;24.90;70.20
39931;DHT22;26635;-35.248;149.138;2024-02-26T07:29:50;24.70;70.40
39931;DHT22;26635;-35.248;149.138;2024-02-26T07:32:21;24.60;71.40
39931;DHT22;26635;-35.248;149.138;2024-02-26T07:34:52;24.60;71.80
39931;DHT22;26635;-35.248;149.138;2024-02-26T07:37:22;24.40;71.20
39931;DHT22;26635;-35.248;149.138;2024-02-26T07:39:52;24.30;71.50
39931;DHT22;26635;-35.248;149.138;2024-02-26T07:42:23;24.10;71.90
39931;DHT22;26635;-35.248;149.138;2024-02-26T07:44:54;23.90;73.00
39931;DHT22;26635;-35.248;149.138;2024-02-26T07:47:25;23.90;72.80
39931;DHT22;26635;-35.248;149.138;2024-02-26T07:49:55;23.70;72.40
39931;DHT22;26635;-35.248;149.138;2024-02-26T07:52:26;23.60;73.20
39931;DHT22;26635;-35.248;149.138;2024-02-26T07:54:56;23.60;73.40
39931;DHT22;26635;-35.248;149.138;2024-02-26T07:57:26;23.40;73.70
39931;DHT22;26635;-35.248;149.138;2024-02-26T07:59:57;23.30;74.00
39931;DHT22;26635;-35.248;149.138;2024-02-26T08:02:27;23.10;74.50
39931;DHT22;26635;-35.248;149.138;2024-02-26T08:04:58;22.90;74.90
39931;DHT22;26635;-35.248;149.138;2024-02-26T08:07:28;22.80;75.40
39931;DHT22;26635;-35.248;149.138;2024-02-26T08:09:58;22.90;75.50
39931;DHT22;26635;-35.248;149.138;2024-02-26T08:12:29;22.80;75.00
39931;DHT22;26635;-35.248;149.138;2024-02-26T08:14:59;22.60;75.40
39931;DHT22;26635;-35.248;149.138;2024-02-26T08:17:31;22.50;76.00
39931;DHT22;26635;-35.248;149.138;2024-02-26T08:20:04;22.40;76.00
39931;DHT22;26635;-35.248;149.138;2024-02-26T08:22:35;22.20;76.40
39931;DHT22;26635;-35.248;149.138;2024-02-26T08:25:05;22.10;77.10
39931;DHT22;26635;-35.248;149.138;2024-02-26T08:27:39;21.90;77.80
39931;DHT22;26635;-35.248;149.138;2024-02-26T08:30:10;21.80;78.20
39931;DHT22;26635;-35.248;149.138;2024-02-26T08:32:51;21.60;78.60
39931;DHT22;26635;-35.248;149.138;2024-02-26T08:35:22;21.50;78.70
39931;DHT22;26635;-35.248;149.138;2024-02-26T08:37:52;21.40;79.30
39931;DHT22;26635;-35.248;149.138;2024-02-26T08:40:23;21.20;79.50
39931;DHT22;26635;-35.248;149.138;2024-02-26T08:42:53;21.10;80.20
39931;DHT22;26635;-35.248;149.138;2024-02-26T08:45:25;21.10;80.30
39931;DHT22;26635;-35.248;149.138;2024-02-26T08:47:57;21.10;80.00
39931;DHT22;26635;-35.248;149.138;2024-02-26T08:50:28;21.10;80.10
39931;DHT22;26635;-35.248;149.138;2024-02-26T08:52:59;21.10;79.40
39931;DHT22;26635;-35.248;149.138;2024-02-26T08:55:34;21.00;79.80
39931;DHT22;26635;-35.248;149.138;2024-02-26T08:58:04;21.00;79.60
39931;DHT22;26635;-35.248;149.138;2024-02-26T09:00:35;21.00;79.80
39931;DHT22;26635;-35.248;149.138;2024-02-26T09:03:05;21.00;79.30
39931;DHT22;26635;-35.248;149.138;2024-02-26T09:05:36;20.90;79.60
39931;DHT22;26635;-35.248;149.138;2024-02-26T09:08:06;20.80;79.80
39931;DHT22;26635;-35.248;149.138;2024-02-26T09:10:37;20.80;80.20
39931;DHT22;26635;-35.248;149.138;2024-02-26T09:13:08;20.80;80.00
39931;DHT22;26635;-35.248;149.138;2024-02-26T09:15:38;20.80;80.10
39931;DHT22;26635;-35.248;149.138;2024-02-26T09:18:08;20.80;79.80
39931;DHT22;26635;-35.248;149.138;2024-02-26T09:20:39;20.80;80.20
39931;DHT22;26635;-35.248;149.138;2024-02-26T09:23:10;20.80;80.00
39931;DHT22;26635;-35.248;149.138;2024-02-26T09:25:40;20.60;80.30
39931;DHT22;26635;-35.248;149.138;2024-02-26T09:28:10;20.50;80.60
39931;DHT22;26635;-35.248;149.138;2024-02-26T09:30:41;20.50;81.10
39931;DHT22;26635;-35.248;149.138;2024-02-26T09:33:11;20.50;81.70
39931;DHT22;26635;-35.248;149.138;2024-02-26T09:35:43;20.50;81.80
39931;DHT22;26635;-35.248;149.138;2024-02-26T09:40:54;20.50;81.40
39931;DHT22;26635;-35.248;149.138;2024-02-26T09:43:29;20.40;81.50
39931;DHT22;26635;-35.248;149.138;2024-02-26T09:46:03;20.40;81.70
39931;DHT22;26635;-35.248;149.138;2024-02-26T09:48:34;20.30;81.20
39931;DHT22;26635;-35.248;149.138;2024-02-26T09:51:06;20.20;81.60
39931;DHT22;26635;-35.248;149.138;2024-02-26T09:53:37;20.20;82.00
39931;DHT22;26635;-35.248;149.138;2024-02-26T09:56:14;20.20;82.10
39931;DHT22;26635;-35.248;149.138;2024-02-26T09:58:45;20.30;81.80
39931;DHT22;26635;-35.248;149.138;2024-02-26T10:01:19;20.20;82.00
39931;DHT22;26635;-35.248;149.138;2024-02-26T10:03:55;20.10;82.40
39931;DHT22;26635;-35.248;149.138;2024-02-26T10:06:29;20.10;82.70
39931;DHT22;26635;-35.248;149.138;2024-02-26T10:09:00;20.20;82.70
39931;DHT22;26635;-35.248;149.138;2024-02-26T10:11:34;20.00;83.10
39931;DHT22;26635;-35.248;149.138;2024-02-26T10:14:04;20.00;83.50
39931;DHT22;26635;-35.248;149.138;2024-02-26T10:16:37;20.00;83.70
39931;DHT22;26635;-35.248;149.138;2024-02-26T10:19:08;20.00;83.80
39931;DHT22;26635;-35.248;149.138;2024-02-26T10:21:39;20.00;84.20
39931;DHT22;26635;-35.248;149.138;2024-02-26T10:24:14;20.00;84.30
39931;DHT22;26635;-35.248;149.138;2024-02-26T10:26:48;20.00;84.00
39931;DHT22;26635;-35.248;149.138;2024-02-26T10:29:19;20.00;84.40
39931;DHT22;26635;-35.248;149.138;2024-02-26T10:31:51;20.10;83.70
39931;DHT22;26635;-35.248;149.138;2024-02-26T10:34:22;20.10;83.80
39931;DHT22;26635;-35.248;149.138;2024-02-26T10:36:53;20.10;83.80
39931;DHT22;26635;-35.248;149.138;2024-02-26T10:39:25;20.10;83.50
39931;DHT22;26635;-35.248;149.138;2024-02-26T10:41:57;20.10;84.70
39931;DHT22;26635;-35.248;149.138;2024-02-26T10:44:31;20.00;83.60
39931;DHT22;26635;-35.248;149.138;2024-02-26T10:47:02;20.00;83.00
39931;DHT22;26635;-35.248;149.138;2024-02-26T10:49:34;20.00;83.50
39931;DHT22;26635;-35.248;149.138;2024-02-26T10:52:05;20.00;82.60
39931;DHT22;26635;-35.248;149.138;2024-02-26T10:54:38;19.90;82.60
39931;DHT22;26635;-35.248;149.138;2024-02-26T10:57:14;19.90;83.40
39931;DHT22;26635;-35.248;149.138;2024-02-26T10:59:46;19.90;83.40
39931;DHT22;26635;-35.248;149.138;2024-02-26T11:02:18;19.90;82.50
39931;DHT22;26635;-35.248;149.138;2024-02-26T11:04:48;19.90;82.60
39931;DHT22;26635;-35.248;149.138;2024-02-26T11:07:20;19.90;82.30
39931;DHT22;26635;-35.248;149.138;2024-02-26T11:09:51;19.90;82.50
39931;DHT22;26635;-35.248;149.138;2024-02-26T11:12:23;19.80;82.30
39931;DHT22;26635;-35.248;149.138;2024-02-26T11:14:58;19.80;83.10
39931;DHT22;26635;-35.248;149.138;2024-02-26T11:17:30;19.70;82.90
39931;DHT22;26635;-35.248;149.138;2024-02-26T11:20:01;19.70;82.70
39931;DHT22;26635;-35.248;149.138;2024-02-26T11:22:35;19.70;82.90
39931;DHT22;26635;-35.248;149.138;2024-02-26T11:25:06;19.70;83.20
39931;DHT22;26635;-35.248;149.138;2024-02-26T11:27:44;19.80;82.80
39931;DHT22;26635;-35.248;149.138;2024-02-26T11:30:16;19.70;82.70
39931;DHT22;26635;-35.248;149.138;2024-02-26T11:32:47;19.70;82.40
39931;DHT22;26635;-35.248;149.138;2024-02-26T11:35:19;19.60;82.80
39931;DHT22;26635;-35.248;149.138;2024-02-26T11:37:56;19.60;83.00
39931;DHT22;26635;-35.248;149.138;2024-02-26T11:40:31;19.50;81.80
39931;DHT22;26635;-35.248;149.138;2024-02-26T11:43:01;19.40;81.20
39931;DHT22;26635;-35.248;149.138;2024-02-26T11:48:24;19.40;79.90
39931;DHT22;26635;-35.248;149.138;2024-02-26T11:50:56;19.40;80.50
39931;DHT22;26635;-35.248;149.138;2024-02-26T11:53:33;19.40;79.50
39931;DHT22;26635;-35.248;149.138;2024-02-26T11:59:05;19.30;79.40
39931;DHT22;26635;-35.248;149.138;2024-02-26T12:01:46;19.30;81.20
39931;DHT22;26635;-35.248;149.138;2024-02-26T12:04:26;19.20;80.30
39931;DHT22;26635;-35.248;149.138;2024-02-26T12:07:02;19.20;79.20
39931;DHT22;26635;-35.248;149.138;2024-02-26T12:09:41;19.20;79.90
39931;DHT22;26635;-35.248;149.138;2024-02-26T12:12:17;19.30;79.80
39931;DHT22;26635;-35.248;149.138;2024-02-26T12:14:52;19.30;80.20
39931;DHT22;26635;-35.248;149.138;2024-02-26T12:17:27;19.20;79.40
39931;DHT22;26635;-35.248;149.138;2024-02-26T12:20:09;19.20;79.40
39931;DHT22;26635;-35.248;149.138;2024-02-26T12:22:45;19.10;79.50
39931;DHT22;26635;-35.248;149.138;2024-02-26T12:25:22;19.10;80.10
39931;DHT22;26635;-35.248;149.138;2024-02-26T12:27:54;19.10;80.80
39931;DHT22;26635;-35.248;149.138;2024-02-26T12:30:26;19.00;79.80
39931;DHT22;26635;-35.248;149.138;2024-02-26T12:32:59;18.90;79.40
39931;DHT22;26635;-35.248;149.138;2024-02-26T12:35:31;18.90;80.00
39931;DHT22;26635;-35.248;149.138;2024-02-26T12:38:02;18.80;80.10
39931;DHT22;26635;-35.248;149.138;2024-02-26T12:40:33;18.80;80.30
39931;DHT22;26635;-35.248;149.138;2024-02-26T12:43:06;18.80;80.30
39931;DHT22;26635;-35.248;149.138;2024-02-26T12:45:42;18.80;80.70
39931;DHT22;26635;-35.248;149.138;2024-02-26T12:48:17;18.80;80.70
39931;DHT22;26635;-35.248;149.138;2024-02-26T12:50:48;18.80;79.30
39931;DHT22;26635;-35.248;149.138;2024-02-26T12:53:18;18.70;79.80
39931;DHT22;26635;-35.248;149.138;2024-02-26T12:55:49;18.60;80.50
39931;DHT22;26635;-35.248;149.138;2024-02-26T12:58:20;18.60;80.10
39931;DHT22;26635;-35.248;149.138;2024-02-26T13:00:55;18.60;81.50
39931;DHT22;26635;-35.248;149.138;2024-02-26T13:03:25;18.70;80.80
39931;DHT22;26635;-35.248;149.138;2024-02-26T13:05:57;18.70;80.00
39931;DHT22;26635;-35.248;149.138;2024-02-26T13:08:28;18.70;80.50
39931;DHT22;26635;-35.248;149.138;2024-02-26T13:11:02;18.70;81.20
39931;DHT22;26635;-35.248;149.138;2024-02-26T13:13:33;18.70;82.00
39931;DHT22;26635;-35.248;149.138;2024-02-26T13:16:05;18.60;81.20
39931;DHT22;26635;-35.248;149.138;2024-02-26T13:18:37;18.70;80.30
39931;DHT22;26635;-35.248;149.138;2024-02-26T13:21:12;18.60;79.90
39931;DHT22;26635;-35.248;149.138;2024-02-26T13:23:47;18.60;81.00
39931;DHT22;26635;-35.248;149.138;2024-02-26T13:26:22;18.60;80.90
39931;DHT22;26635;-35.248;149.138;2024-02-26T13:29:04;18.60;81.40
39931;DHT22;26635;-35.248;149.138;2024-02-26T13:31:41;18.60;82.30
39931;DHT22;26635;-35.248;149.138;2024-02-26T13:34:33;18.60;82.10
39931;DHT22;26635;-35.248;149.138;2024-02-26T13:37:04;18.60;81.10
39931;DHT22;26635;-35.248;149.138;2024-02-26T13:39:35;18.50;81.80
39931;DHT22;26635;-35.248;149.138;2024-02-26T13:42:09;18.50;81.40
39931;DHT22;26635;-35.248;149.138;2024-02-26T13:44:41;18.50;81.60
39931;DHT22;26635;-35.248;149.138;2024-02-26T13:47:12;18.50;80.80
39931;DHT22;26635;-35.248;149.138;2024-02-26T13:49:42;18.50;81.00
39931;DHT22;26635;-35.248;149.138;2024-02-26T13:52:13;18.60;81.10
39931;DHT22;26635;-35.248;149.138;2024-02-26T13:54:43;18.50;81.30
39931;DHT22;26635;-35.248;149.138;2024-02-26T13:57:14;18.50;81.00
39931;DHT22;26635;-35.248;149.138;2024-02-26T13:59:44;18.50;81.10
39931;DHT22;26635;-35.248;149.138;2024-02-26T14:02:15;18.50;81.40
39931;DHT22;26635;-35.248;149.138;2024-02-26T14:04:46;18.50;82.00
39931;DHT22;26635;-35.248;149.138;2024-02-26T14:07:17;18.40;82.00
39931;DHT22;26635;-35.248;149.138;2024-02-26T14:09:48;18.50;81.70
39931;DHT22;26635;-35.248;149.138;2024-02-26T14:12:20;18.50;82.30
39931;DHT22;26635;-35.248;149.138;2024-02-26T14:14:52;18.50;81.10
39931;DHT22;26635;-35.248;149.138;2024-02-26T14:17:25;18.50;81.10
39931;DHT22;26635;-35.248;149.138;2024-02-26T14:19:55;18.50;81.20
39931;DHT22;26635;-35.248;149.138;2024-02-26T14:22:26;18.50;81.90
39931;DHT22;26635;-35.248;149.138;2024-02-26T14:24:59;18.50;81.20
39931;DHT22;26635;-35.248;149.138;2024-02-26T14:27:30;18.40;80.50
39931;DHT22;26635;-35.248;149.138;2024-02-26T14:30:00;18.50;81.10
39931;DHT22;26635;-35.248;149.138;2024-02-26T14:32:31;18.40;81.30
39931;DHT22;26635;-35.248;149.138;2024-02-26T14:35:07;18.40;81.40
39931;DHT22;26635;-35.248;149.138;2024-02-26T14:37:45;18.50;81.30
39931;DHT22;26635;-35.248;149.138;2024-02-26T14:40:20;18.50;81.00
39931;DHT22;26635;-35.248;149.138;2024-02-26T14:42:50;18.50;80.10
39931;DHT22;26635;-35.248;149.138;2024-02-26T14:45:21;18.50;79.60
39931;DHT22;26635;-35.248;149.138;2024-02-26T14:47:51;18.50;80.20
39931;DHT22;26635;-35.248;149.138;2024-02-26T14:50:22;18.50;79.60
39931;DHT22;26635;-35.248;149.138;2024-02-26T14:52:52;18.50;79.80
39931;DHT22;26635;-35.248;149.138;2024-02-26T14:55:23;18.50;79.80
39931;DHT22;26635;-35.248;149.138;2024-02-26T14:57:53;18.50;80.30
39931;DHT22;26635;-35.248;149.138;2024-02-26T15:00:24;18.40;79.70
39931;DHT22;26635;-35.248;149.138;2024-02-26T15:02:54;18.40;79.50
39931;DHT22;26635;-35.248;149.138;2024-02-26T15:05:25;18.40;79.10
39931;DHT22;26635;-35.248;149.138;2024-02-26T15:07:56;18.40;79.70
39931;DHT22;26635;-35.248;149.138;2024-02-26T15:10:26;18.30;80.00
39931;DHT22;26635;-35.248;149.138;2024-02-26T15:12:58;18.30;80.00
39931;DHT22;26635;-35.248;149.138;2024-02-26T15:15:28;18.40;81.10
39931;DHT22;26635;-35.248;149.138;2024-02-26T15:17:59;18.40;79.90
39931;DHT22;26635;-35.248;149.138;2024-02-26T15:20:29;18.40;79.90
39931;DHT22;26635;-35.248;149.138;2024-02-26T15:23:01;18.40;79.60